ESSB/BMA METAR and TAF weather

Enter ICAO airport designator
Station Type Date Time Source
ESSB METAR 2021/07/28 03:20 UTC NOAA

ESSB 280320Z AUTO VRB03KT 9999 -RA BKN045/// OVC057/// 19/18 Q1008 REDZ


Station Type Date Time Source
ESSB Decoded METAR 2021/07/28 03:20 UTC NOAA

Stockholm / Bromma, Sweden (ESSB) 59-21N 017-57E 14M
Jul 27, 2021 - 11:20 PM EDT / 2021.07.28 0320 UTC
Wind: Variable at 3 MPH (3 KT):0
Visibility: greater than 7 mile(s):0
Sky conditions: overcast
Weather: light rain
Temperature: 66 F (19 C)
Dew Point: 64 F (18 C)
Relative Humidity: 93%
Pressure (altimeter): 29.77 in. Hg (1008 hPa)
ob: ESSB 280320Z AUTO VRB03KT 9999 -RA BKN045/// OVC057/// 19/18 Q1008 REDZ
cycle: 3

Station Type Date Time Source
ESSB TAF 2017/03/27 06:35 UTC NOAA

TAF ESSB 270530Z 2706/2724 27008KT CAVOK
BECMG 2710/2713 29015G25KT

Example: see airport list